sensor_id;sensor_type;location;lat;lon;timestamp;pressure;altitude;pressure_sealevel;temperature;humidity
70488;BME280;57976;48.174;16.370;2023-03-20T00:01:17;99297.63;;;10.23;59.15
70488;BME280;57976;48.174;16.370;2023-03-20T00:03:22;99299.96;;;10.22;59.30
70488;BME280;57976;48.174;16.370;2023-03-20T00:05:28;99298.98;;;10.20;59.06
70488;BME280;57976;48.174;16.370;2023-03-20T00:07:34;99298.74;;;10.15;59.64
70488;BME280;57976;48.174;16.370;2023-03-20T00:09:39;99296.05;;;10.11;59.41
70488;BME280;57976;48.174;16.370;2023-03-20T00:11:47;99294.83;;;10.08;59.62
70488;BME280;57976;48.174;16.370;2023-03-20T00:13:53;99293.86;;;10.09;59.68
70488;BME280;57976;48.174;16.370;2023-03-20T00:15:58;99295.56;;;10.07;59.64
70488;BME280;57976;48.174;16.370;2023-03-20T00:18:03;99298.11;;;10.08;60.04
70488;BME280;57976;48.174;16.370;2023-03-20T00:20:16;99292.53;;;10.07;60.41
70488;BME280;57976;48.174;16.370;2023-03-20T00:22:21;99292.04;;;10.07;60.04
70488;BME280;57976;48.174;16.370;2023-03-20T00:24:27;99286.05;;;10.06;59.99
70488;BME280;57976;48.174;16.370;2023-03-20T00:26:34;99288.73;;;10.05;60.20
70488;BME280;57976;48.174;16.370;2023-03-20T00:28:42;99290.09;;;9.99;60.28
70488;BME280;57976;48.174;16.370;2023-03-20T00:30:47;99289.77;;;9.93;60.40
70488;BME280;57976;48.174;16.370;2023-03-20T00:32:52;99293.69;;;9.89;60.57
70488;BME280;57976;48.174;16.370;2023-03-20T00:34:57;99286.17;;;9.84;60.61
70488;BME280;57976;48.174;16.370;2023-03-20T00:37:02;99287.83;;;9.82;60.80
70488;BME280;57976;48.174;16.370;2023-03-20T00:39:07;99291.19;;;9.82;60.94
70488;BME280;57976;48.174;16.370;2023-03-20T00:41:22;99290.17;;;9.84;61.18
70488;BME280;57976;48.174;16.370;2023-03-20T00:43:30;99285.94;;;9.87;60.98
70488;BME280;57976;48.174;16.370;2023-03-20T00:45:35;99287.09;;;9.89;61.05
70488;BME280;57976;48.174;16.370;2023-03-20T00:47:40;99289.42;;;9.89;60.80
70488;BME280;57976;48.174;16.370;2023-03-20T00:49:47;99286.51;;;9.87;60.85
70488;BME280;57976;48.174;16.370;2023-03-20T00:51:52;99284.36;;;9.85;60.66
70488;BME280;57976;48.174;16.370;2023-03-20T00:53:57;99279.25;;;9.83;60.96
70488;BME280;57976;48.174;16.370;2023-03-20T00:56:01;99280.71;;;9.81;60.93
70488;BME280;57976;48.174;16.370;2023-03-20T00:58:08;99283.41;;;9.83;61.02
70488;BME280;57976;48.174;16.370;2023-03-20T01:00:28;99282.67;;;9.85;60.85
70488;BME280;57976;48.174;16.370;2023-03-20T01:02:34;99276.85;;;9.87;61.31
70488;BME280;57976;48.174;16.370;2023-03-20T01:04:41;99278.22;;;9.89;60.90
70488;BME280;57976;48.174;16.370;2023-03-20T01:06:46;99274.16;;;9.92;60.94
70488;BME280;57976;48.174;16.370;2023-03-20T01:08:52;99273.88;;;9.94;61.00
70488;BME280;57976;48.174;16.370;2023-03-20T01:10:58;99271.59;;;9.93;60.66
70488;BME280;57976;48.174;16.370;2023-03-20T01:13:05;99271.52;;;9.95;60.86
70488;BME280;57976;48.174;16.370;2023-03-20T01:15:21;99282.29;;;9.97;60.77
70488;BME280;57976;48.174;16.370;2023-03-20T01:17:27;99285.14;;;10.01;60.69
70488;BME280;57976;48.174;16.370;2023-03-20T01:19:32;99283.23;;;10.03;60.68
70488;BME280;57976;48.174;16.370;2023-03-20T01:21:37;99282.51;;;10.05;60.61
70488;BME280;57976;48.174;16.370;2023-03-20T01:23:42;99286.89;;;10.07;60.69
70488;BME280;57976;48.174;16.370;2023-03-20T01:25:47;99285.98;;;10.06;60.93
70488;BME280;57976;48.174;16.370;2023-03-20T01:27:52;99289.36;;;10.04;60.89
70488;BME280;57976;48.174;16.370;2023-03-20T01:29:58;99292.20;;;10.03;60.67
70488;BME280;57976;48.174;16.370;2023-03-20T01:32:04;99289.53;;;10.02;60.82
70488;BME280;57976;48.174;16.370;2023-03-20T01:34:13;99289.36;;;10.01;60.81
70488;BME280;57976;48.174;16.370;2023-03-20T01:36:21;99289.19;;;10.01;60.92
70488;BME280;57976;48.174;16.370;2023-03-20T01:38:27;99288.25;;;9.98;61.04
70488;BME280;57976;48.174;16.370;2023-03-20T01:40:36;99288.11;;;9.96;60.83
70488;BME280;57976;48.174;16.370;2023-03-20T01:42:45;99288.75;;;9.94;60.75
70488;BME280;57976;48.174;16.370;2023-03-20T01:44:50;99291.20;;;9.90;60.80
70488;BME280;57976;48.174;16.370;2023-03-20T01:46:55;99289.39;;;9.89;61.31
70488;BME280;57976;48.174;16.370;2023-03-20T01:49:08;99292.59;;;9.89;61.13
70488;BME280;57976;48.174;16.370;2023-03-20T01:51:33;99292.59;;;9.92;61.01
70488;BME280;57976;48.174;16.370;2023-03-20T01:53:41;99292.30;;;9.93;60.99
70488;BME280;57976;48.174;16.370;2023-03-20T01:55:47;99295.29;;;9.93;60.98
70488;BME280;57976;48.174;16.370;2023-03-20T01:57:55;99295.56;;;9.91;61.27
70488;BME280;57976;48.174;16.370;2023-03-20T02:00:04;99298.06;;;9.89;61.19
70488;BME280;57976;48.174;16.370;2023-03-20T02:02:20;99300.25;;;9.86;61.26
70488;BME280;57976;48.174;16.370;2023-03-20T02:04:28;99299.51;;;9.82;61.25
70488;BME280;57976;48.174;16.370;2023-03-20T02:06:40;99294.98;;;9.80;61.53
70488;BME280;57976;48.174;16.370;2023-03-20T02:09:01;99293.77;;;9.79;61.45
70488;BME280;57976;48.174;16.370;2023-03-20T02:11:10;99290.67;;;9.77;61.40
70488;BME280;57976;48.174;16.370;2023-03-20T02:13:16;99292.15;;;9.78;61.35
70488;BME280;57976;48.174;16.370;2023-03-20T02:15:26;99290.41;;;9.76;61.50
70488;BME280;57976;48.174;16.370;2023-03-20T02:17:49;99288.83;;;9.70;61.49
70488;BME280;57976;48.174;16.370;2023-03-20T02:20:00;99289.21;;;9.66;61.60
70488;BME280;57976;48.174;16.370;2023-03-20T02:22:23;99291.55;;;9.60;61.86
70488;BME280;57976;48.174;16.370;2023-03-20T02:24:47;99294.61;;;9.51;62.37
70488;BME280;57976;48.174;16.370;2023-03-20T02:27:06;99294.17;;;9.42;62.78
70488;BME280;57976;48.174;16.370;2023-03-20T02:32:09;99297.45;;;9.32;63.08
70488;BME280;57976;48.174;16.370;2023-03-20T02:34:58;99297.20;;;9.25;63.62
70488;BME280;57976;48.174;16.370;2023-03-20T02:37:43;99301.71;;;9.22;63.57
70488;BME280;57976;48.174;16.370;2023-03-20T02:40:01;99300.90;;;9.19;63.82
70488;BME280;57976;48.174;16.370;2023-03-20T02:42:13;99302.16;;;9.17;64.30
70488;BME280;57976;48.174;16.370;2023-03-20T02:44:24;99301.91;;;9.18;64.44
70488;BME280;57976;48.174;16.370;2023-03-20T02:46:42;99306.75;;;9.18;64.48
70488;BME280;57976;48.174;16.370;2023-03-20T02:49:00;99308.38;;;9.17;64.66
70488;BME280;57976;48.174;16.370;2023-03-20T02:51:11;99312.21;;;9.19;65.46
70488;BME280;57976;48.174;16.370;2023-03-20T02:53:29;99311.88;;;9.19;65.16
70488;BME280;57976;48.174;16.370;2023-03-20T02:55:42;99309.08;;;9.20;65.26
70488;BME280;57976;48.174;16.370;2023-03-20T02:57:54;99313.23;;;9.21;65.36
70488;BME280;57976;48.174;16.370;2023-03-20T03:00:06;99311.31;;;9.21;65.50
70488;BME280;57976;48.174;16.370;2023-03-20T03:02:17;99311.86;;;9.22;65.59
70488;BME280;57976;48.174;16.370;2023-03-20T03:04:26;99312.93;;;9.23;65.56
70488;BME280;57976;48.174;16.370;2023-03-20T03:06:37;99312.04;;;9.25;65.49
70488;BME280;57976;48.174;16.370;2023-03-20T03:08:51;99312.26;;;9.26;65.61
70488;BME280;57976;48.174;16.370;2023-03-20T03:11:01;99310.02;;;9.27;65.36
70488;BME280;57976;48.174;16.370;2023-03-20T03:13:12;99312.09;;;9.27;65.61
70488;BME280;57976;48.174;16.370;2023-03-20T03:15:20;99315.48;;;9.28;65.49
70488;BME280;57976;48.174;16.370;2023-03-20T03:17:30;99318.65;;;9.28;65.85
70488;BME280;57976;48.174;16.370;2023-03-20T03:19:38;99315.49;;;9.28;65.56
70488;BME280;57976;48.174;16.370;2023-03-20T03:21:46;99315.55;;;9.30;65.71
70488;BME280;57976;48.174;16.370;2023-03-20T03:23:53;99318.51;;;9.29;65.90
70488;BME280;57976;48.174;16.370;2023-03-20T03:25:59;99318.45;;;9.29;65.93
70488;BME280;57976;48.174;16.370;2023-03-20T03:28:08;99319.02;;;9.28;66.36
70488;BME280;57976;48.174;16.370;2023-03-20T03:30:25;99317.92;;;9.30;66.52
70488;BME280;57976;48.174;16.370;2023-03-20T03:32:34;99316.73;;;9.31;66.38
70488;BME280;57976;48.174;16.370;2023-03-20T03:34:40;99315.40;;;9.32;66.48
70488;BME280;57976;48.174;16.370;2023-03-20T03:36:53;99316.27;;;9.32;66.50
70488;BME280;57976;48.174;16.370;2023-03-20T03:39:08;99315.55;;;9.33;66.94
70488;BME280;57976;48.174;16.370;2023-03-20T03:41:21;99313.48;;;9.33;67.44
70488;BME280;57976;48.174;16.370;2023-03-20T03:43:29;99313.69;;;9.32;67.84
70488;BME280;57976;48.174;16.370;2023-03-20T03:45:40;99312.22;;;9.33;68.37
70488;BME280;57976;48.174;16.370;2023-03-20T03:47:48;99316.20;;;9.35;68.55
70488;BME280;57976;48.174;16.370;2023-03-20T03:49:59;99318.66;;;9.35;69.07
70488;BME280;57976;48.174;16.370;2023-03-20T03:52:09;99321.63;;;9.37;69.51
70488;BME280;57976;48.174;16.370;2023-03-20T03:54:18;99326.43;;;9.39;70.63
70488;BME280;57976;48.174;16.370;2023-03-20T03:56:47;99320.96;;;9.39;70.63
70488;BME280;57976;48.174;16.370;2023-03-20T03:58:55;99315.17;;;9.39;70.77
70488;BME280;57976;48.174;16.370;2023-03-20T04:01:05;99313.16;;;9.38;70.86
70488;BME280;57976;48.174;16.370;2023-03-20T04:03:12;99312.93;;;9.38;71.21
70488;BME280;57976;48.174;16.370;2023-03-20T04:05:19;99311.91;;;9.39;71.49
70488;BME280;57976;48.174;16.370;2023-03-20T04:07:26;99315.33;;;9.40;71.37
70488;BME280;57976;48.174;16.370;2023-03-20T04:09:31;99312.88;;;9.42;71.32
70488;BME280;57976;48.174;16.370;2023-03-20T04:11:36;99316.11;;;9.42;71.44
70488;BME280;57976;48.174;16.370;2023-03-20T04:13:40;99314.44;;;9.43;71.84
70488;BME280;57976;48.174;16.370;2023-03-20T04:15:45;99317.61;;;9.42;72.20
70488;BME280;57976;48.174;16.370;2023-03-20T04:17:53;99318.95;;;9.41;72.75
70488;BME280;57976;48.174;16.370;2023-03-20T04:19:58;99317.27;;;9.39;72.52
70488;BME280;57976;48.174;16.370;2023-03-20T04:22:03;99313.29;;;9.38;72.77
70488;BME280;57976;48.174;16.370;2023-03-20T04:24:09;99315.37;;;9.37;73.12
70488;BME280;57976;48.174;16.370;2023-03-20T04:26:13;99313.30;;;9.35;73.33
70488;BME280;57976;48.174;16.370;2023-03-20T04:28:18;99307.73;;;9.33;73.59
70488;BME280;57976;48.174;16.370;2023-03-20T04:30:32;99310.21;;;9.31;74.03
70488;BME280;57976;48.174;16.370;2023-03-20T04:32:50;99310.39;;;9.28;74.17
70488;BME280;57976;48.174;16.370;2023-03-20T04:35:12;99309.75;;;9.24;74.06
70488;BME280;57976;48.174;16.370;2023-03-20T04:37:40;99306.79;;;9.21;74.59
70488;BME280;57976;48.174;16.370;2023-03-20T04:39:44;99308.47;;;9.19;74.56
70488;BME280;57976;48.174;16.370;2023-03-20T04:41:49;99307.44;;;9.16;74.47
70488;BME280;57976;48.174;16.370;2023-03-20T04:43:54;99311.35;;;9.16;75.02
70488;BME280;57976;48.174;16.370;2023-03-20T04:45:59;99311.63;;;9.14;74.84
70488;BME280;57976;48.174;16.370;2023-03-20T04:48:05;99312.70;;;9.15;75.40
70488;BME280;57976;48.174;16.370;2023-03-20T04:50:12;99312.02;;;9.17;75.32
70488;BME280;57976;48.174;16.370;2023-03-20T04:52:17;99313.70;;;9.19;75.87
70488;BME280;57976;48.174;16.370;2023-03-20T04:54:25;99319.44;;;9.19;75.68
70488;BME280;57976;48.174;16.370;2023-03-20T04:56:30;99322.46;;;9.19;75.50
70488;BME280;57976;48.174;16.370;2023-03-20T04:58:47;99324.11;;;9.20;76.05
70488;BME280;57976;48.174;16.370;2023-03-20T05:00:54;99325.78;;;9.21;76.00
70488;BME280;57976;48.174;16.370;2023-03-20T05:02:59;99331.82;;;9.22;75.94
70488;BME280;57976;48.174;16.370;2023-03-20T05:05:04;99339.84;;;9.23;76.13
70488;BME280;57976;48.174;16.370;2023-03-20T05:07:11;99345.57;;;9.24;76.04
70488;BME280;57976;48.174;16.370;2023-03-20T05:09:34;99347.54;;;9.24;76.25
70488;BME280;57976;48.174;16.370;2023-03-20T05:11:43;99348.36;;;9.26;76.27
70488;BME280;57976;48.174;16.370;2023-03-20T05:13:55;99350.75;;;9.29;76.62
70488;BME280;57976;48.174;16.370;2023-03-20T05:16:11;99354.30;;;9.32;76.92
70488;BME280;57976;48.174;16.370;2023-03-20T05:18:22;99355.11;;;9.36;77.13
70488;BME280;57976;48.174;16.370;2023-03-20T05:20:43;99360.92;;;9.40;76.93
70488;BME280;57976;48.174;16.370;2023-03-20T05:23:05;99361.23;;;9.43;76.64
70488;BME280;57976;48.174;16.370;2023-03-20T05:25:28;99368.77;;;9.45;76.32
70488;BME280;57976;48.174;16.370;2023-03-20T05:27:49;99370.58;;;9.46;76.75
70488;BME280;57976;48.174;16.370;2023-03-20T05:30:08;99379.74;;;9.47;76.84
70488;BME280;57976;48.174;16.370;2023-03-20T05:32:31;99383.10;;;9.48;76.64
70488;BME280;57976;48.174;16.370;2023-03-20T05:34:42;99385.41;;;9.50;76.99
70488;BME280;57976;48.174;16.370;2023-03-20T05:36:53;99387.66;;;9.49;76.87
70488;BME280;57976;48.174;16.370;2023-03-20T05:39:01;99390.48;;;9.49;76.75
70488;BME280;57976;48.174;16.370;2023-03-20T05:41:22;99387.30;;;9.49;76.64
70488;BME280;57976;48.174;16.370;2023-03-20T05:43:40;99388.84;;;9.49;76.53
70488;BME280;57976;48.174;16.370;2023-03-20T05:46:03;99395.55;;;9.52;76.81
70488;BME280;57976;48.174;16.370;2023-03-20T05:48:27;99401.95;;;9.55;76.69
70488;BME280;57976;48.174;16.370;2023-03-20T05:50:48;99398.52;;;9.56;76.25
70488;BME280;57976;48.174;16.370;2023-03-20T05:53:13;99405.68;;;9.61;76.32
70488;BME280;57976;48.174;16.370;2023-03-20T05:55:36;99407.98;;;9.69;76.12
70488;BME280;57976;48.174;16.370;2023-03-20T05:58:05;99408.98;;;9.72;75.90
70488;BME280;57976;48.174;16.370;2023-03-20T06:00:23;99409.41;;;9.74;75.91
70488;BME280;57976;48.174;16.370;2023-03-20T06:02:39;99411.66;;;9.79;75.99
70488;BME280;57976;48.174;16.370;2023-03-20T06:04:58;99417.95;;;9.82;76.62
70488;BME280;57976;48.174;16.370;2023-03-20T06:07:16;99416.08;;;9.85;75.95
70488;BME280;57976;48.174;16.370;2023-03-20T06:09:24;99415.33;;;9.87;75.75
70488;BME280;57976;48.174;16.370;2023-03-20T06:11:29;99418.69;;;9.88;75.52
70488;BME280;57976;48.174;16.370;2023-03-20T06:13:34;99422.14;;;9.90;76.11
70488;BME280;57976;48.174;16.370;2023-03-20T06:15:39;99423.02;;;9.91;75.91
70488;BME280;57976;48.174;16.370;2023-03-20T06:17:51;99422.16;;;9.92;75.85
70488;BME280;57976;48.174;16.370;2023-03-20T06:19:56;99426.40;;;9.95;75.75
70488;BME280;57976;48.174;16.370;2023-03-20T06:22:00;99423.55;;;9.97;75.50
70488;BME280;57976;48.174;16.370;2023-03-20T06:24:07;99423.27;;;9.99;75.24
70488;BME280;57976;48.174;16.370;2023-03-20T06:26:12;99426.89;;;10.01;75.35
70488;BME280;57976;48.174;16.370;2023-03-20T06:28:26;99425.17;;;10.08;75.55
70488;BME280;57976;48.174;16.370;2023-03-20T06:30:37;99423.76;;;10.13;75.33
70488;BME280;57976;48.174;16.370;2023-03-20T06:32:44;99426.15;;;10.21;75.39
70488;BME280;57976;48.174;16.370;2023-03-20T06:34:48;99425.08;;;10.26;75.16
70488;BME280;57976;48.174;16.370;2023-03-20T06:36:53;99427.08;;;10.34;75.14
70488;BME280;57976;48.174;16.370;2023-03-20T06:38:59;99425.89;;;10.42;75.24
70488;BME280;57976;48.174;16.370;2023-03-20T06:41:05;99428.40;;;10.51;74.78
70488;BME280;57976;48.174;16.370;2023-03-20T06:43:10;99431.96;;;10.59;74.33
70488;BME280;57976;48.174;16.370;2023-03-20T06:45:20;99435.11;;;10.66;74.17
70488;BME280;57976;48.174;16.370;2023-03-20T06:47:31;99433.13;;;10.75;74.44
70488;BME280;57976;48.174;16.370;2023-03-20T06:49:36;99435.41;;;10.83;74.16
70488;BME280;57976;48.174;16.370;2023-03-20T06:51:41;99433.73;;;10.90;74.40
70488;BME280;57976;48.174;16.370;2023-03-20T06:53:46;99433.04;;;10.98;73.89
70488;BME280;57976;48.174;16.370;2023-03-20T06:55:54;99435.91;;;11.07;73.82
70488;BME280;57976;48.174;16.370;2023-03-20T06:57:59;99428.67;;;11.14;73.31
70488;BME280;57976;48.174;16.370;2023-03-20T07:00:04;99429.13;;;11.21;73.28
70488;BME280;57976;48.174;16.370;2023-03-20T07:02:10;99431.23;;;11.29;73.09
70488;BME280;57976;48.174;16.370;2023-03-20T07:04:15;99433.70;;;11.37;73.03
70488;BME280;57976;48.174;16.370;2023-03-20T07:06:24;99435.41;;;11.47;73.08
70488;BME280;57976;48.174;16.370;2023-03-20T07:08:29;99432.13;;;11.57;72.88
70488;BME280;57976;48.174;16.370;2023-03-20T07:10:34;99434.33;;;11.66;72.96
70488;BME280;57976;48.174;16.370;2023-03-20T07:12:39;99432.66;;;11.74;72.76
70488;BME280;57976;48.174;16.370;2023-03-20T07:14:45;99437.88;;;11.82;72.43
70488;BME280;57976;48.174;16.370;2023-03-20T07:16:54;99436.55;;;11.90;72.39
70488;BME280;57976;48.174;16.370;2023-03-20T07:18:59;99440.48;;;11.98;72.24
70488;BME280;57976;48.174;16.370;2023-03-20T07:21:05;99439.45;;;12.04;72.12
70488;BME280;57976;48.174;16.370;2023-03-20T07:23:11;99440.44;;;12.12;71.87
70488;BME280;57976;48.174;16.370;2023-03-20T07:25:18;99441.86;;;12.19;71.67
70488;BME280;57976;48.174;16.370;2023-03-20T07:27:35;99444.26;;;12.30;71.44
70488;BME280;57976;48.174;16.370;2023-03-20T07:29:43;99441.61;;;12.36;71.22
70488;BME280;57976;48.174;16.370;2023-03-20T07:31:49;99439.01;;;12.44;71.11
70488;BME280;57976;48.174;16.370;2023-03-20T07:34:00;99444.61;;;12.55;70.82
70488;BME280;57976;48.174;16.370;2023-03-20T07:36:06;99443.67;;;12.64;70.29
70488;BME280;57976;48.174;16.370;2023-03-20T07:38:11;99442.62;;;12.71;70.18
70488;BME280;57976;48.174;16.370;2023-03-20T07:40:25;99438.98;;;12.78;69.98
70488;BME280;57976;48.174;16.370;2023-03-20T07:42:33;99442.64;;;12.85;69.92
70488;BME280;57976;48.174;16.370;2023-03-20T07:44:48;99445.19;;;12.96;69.46
70488;BME280;57976;48.174;16.370;2023-03-20T07:46:52;99447.84;;;13.05;68.97
70488;BME280;57976;48.174;16.370;2023-03-20T07:49:00;99448.52;;;13.17;68.49
70488;BME280;57976;48.174;16.370;2023-03-20T07:51:06;99446.90;;;13.25;68.26
70488;BME280;57976;48.174;16.370;2023-03-20T07:53:11;99450.85;;;13.34;67.88
70488;BME280;57976;48.174;16.370;2023-03-20T07:55:16;99448.09;;;13.42;67.48
70488;BME280;57976;48.174;16.370;2023-03-20T07:57:22;99440.59;;;13.49;67.23
70488;BME280;57976;48.174;16.370;2023-03-20T07:59:29;99441.21;;;13.59;67.04
70488;BME280;57976;48.174;16.370;2023-03-20T08:01:34;99445.49;;;13.70;66.23
70488;BME280;57976;48.174;16.370;2023-03-20T08:03:38;99444.43;;;13.79;65.53
70488;BME280;57976;48.174;16.370;2023-03-20T08:05:43;99441.55;;;13.87;65.07
70488;BME280;57976;48.174;16.370;2023-03-20T08:07:50;99445.56;;;13.95;64.96
70488;BME280;57976;48.174;16.370;2023-03-20T08:09:55;99440.73;;;14.05;64.42
70488;BME280;57976;48.174;16.370;2023-03-20T08:12:00;99440.70;;;14.15;64.22
70488;BME280;57976;48.174;16.370;2023-03-20T08:14:05;99438.80;;;14.24;63.85
70488;BME280;57976;48.174;16.370;2023-03-20T08:16:10;99437.66;;;14.33;63.88
70488;BME280;57976;48.174;16.370;2023-03-20T08:18:15;99440.31;;;14.39;63.23
70488;BME280;57976;48.174;16.370;2023-03-20T08:20:20;99437.38;;;14.40;63.31
70488;BME280;57976;48.174;16.370;2023-03-20T08:22:27;99433.19;;;14.42;62.95
70488;BME280;57976;48.174;16.370;2023-03-20T08:24:32;99432.46;;;14.40;63.11
70488;BME280;57976;48.174;16.370;2023-03-20T08:26:37;99433.49;;;14.41;63.14
70488;BME280;57976;48.174;16.370;2023-03-20T08:28:42;99435.88;;;14.44;62.79
70488;BME280;57976;48.174;16.370;2023-03-20T08:30:51;99437.59;;;14.47;62.90
70488;BME280;57976;48.174;16.370;2023-03-20T08:32:56;99439.00;;;14.49;62.84
70488;BME280;57976;48.174;16.370;2023-03-20T08:35:01;99437.52;;;14.50;62.79
70488;BME280;57976;48.174;16.370;2023-03-20T08:37:06;99434.37;;;14.50;62.80
70488;BME280;57976;48.174;16.370;2023-03-20T08:39:11;99437.02;;;14.49;62.42
70488;BME280;57976;48.174;16.370;2023-03-20T08:41:17;99433.65;;;14.53;62.63
70488;BME280;57976;48.174;16.370;2023-03-20T08:43:22;99432.91;;;14.55;62.56
70488;BME280;57976;48.174;16.370;2023-03-20T08:45:27;99433.03;;;14.59;62.26
70488;BME280;57976;48.174;16.370;2023-03-20T08:47:32;99434.59;;;14.67;62.11
70488;BME280;57976;48.174;16.370;2023-03-20T08:49:36;99440.10;;;14.72;61.79
70488;BME280;57976;48.174;16.370;2023-03-20T08:51:41;99436.21;;;14.73;61.31
70488;BME280;57976;48.174;16.370;2023-03-20T08:53:46;99439.11;;;14.75;61.42
70488;BME280;57976;48.174;16.370;2023-03-20T08:55:52;99447.48;;;14.79;61.30
70488;BME280;57976;48.174;16.370;2023-03-20T08:57:57;99445.16;;;14.80;61.33
70488;BME280;57976;48.174;16.370;2023-03-20T09:00:02;99443.89;;;14.83;61.49
70488;BME280;57976;48.174;16.370;2023-03-20T09:02:07;99437.34;;;14.86;61.44
70488;BME280;57976;48.174;16.370;2023-03-20T09:04:13;99439.53;;;14.92;61.31
70488;BME280;57976;48.174;16.370;2023-03-20T09:06:18;99441.34;;;14.98;60.99
70488;BME280;57976;48.174;16.370;2023-03-20T09:08:22;99437.67;;;15.04;60.86
70488;BME280;57976;48.174;16.370;2023-03-20T09:10:27;99444.38;;;15.13;60.46
70488;BME280;57976;48.174;16.370;2023-03-20T09:12:32;99440.11;;;15.16;60.02
70488;BME280;57976;48.174;16.370;2023-03-20T09:14:37;99442.06;;;15.15;59.91
70488;BME280;57976;48.174;16.370;2023-03-20T09:16:42;99450.85;;;15.14;59.66
70488;BME280;57976;48.174;16.370;2023-03-20T09:18:47;99443.52;;;15.15;59.67
70488;BME280;57976;48.174;16.370;2023-03-20T09:20:51;99442.66;;;15.19;59.83
70488;BME280;57976;48.174;16.370;2023-03-20T09:22:57;99442.39;;;15.25;59.72
70488;BME280;57976;48.174;16.370;2023-03-20T09:25:01;99443.81;;;15.32;59.69
70488;BME280;57976;48.174;16.370;2023-03-20T09:27:06;99443.22;;;15.36;59.40
70488;BME280;57976;48.174;16.370;2023-03-20T09:29:11;99435.48;;;15.44;59.35
70488;BME280;57976;48.174;16.370;2023-03-20T09:31:15;99437.94;;;15.55;58.61
70488;BME280;57976;48.174;16.370;2023-03-20T09:33:20;99437.83;;;15.64;58.27
70488;BME280;57976;48.174;16.370;2023-03-20T09:35:25;99430.02;;;15.69;58.23
70488;BME280;57976;48.174;16.370;2023-03-20T09:37:30;99433.19;;;15.75;57.92
70488;BME280;57976;48.174;16.370;2023-03-20T09:39:35;99428.07;;;15.79;57.37
70488;BME280;57976;48.174;16.370;2023-03-20T09:41:39;99431.71;;;15.87;57.54
70488;BME280;57976;48.174;16.370;2023-03-20T09:44:13;99430.48;;;15.94;56.68
70488;BME280;57976;48.174;16.370;2023-03-20T09:46:39;99433.60;;;15.92;56.50
70488;BME280;57976;48.174;16.370;2023-03-20T09:48:51;99425.64;;;15.94;56.25
70488;BME280;57976;48.174;16.370;2023-03-20T09:51:03;99425.56;;;16.00;56.21
70488;BME280;57976;48.174;16.370;2023-03-20T09:53:15;99419.92;;;16.04;55.88
70488;BME280;57976;48.174;16.370;2023-03-20T09:55:24;99426.02;;;16.12;55.42
70488;BME280;57976;48.174;16.370;2023-03-20T09:57:36;99421.60;;;16.16;55.67
70488;BME280;57976;48.174;16.370;2023-03-20T09:59:42;99423.91;;;16.23;54.59
70488;BME280;57976;48.174;16.370;2023-03-20T10:01:52;99422.17;;;16.26;54.50
70488;BME280;57976;48.174;16.370;2023-03-20T10:03:59;99417.86;;;16.28;54.88
70488;BME280;57976;48.174;16.370;2023-03-20T10:06:06;99420.46;;;16.33;54.98
70488;BME280;57976;48.174;16.370;2023-03-20T10:08:16;99422.05;;;16.39;54.78
70488;BME280;57976;48.174;16.370;2023-03-20T10:10:32;99413.68;;;16.42;54.55
70488;BME280;57976;48.174;16.370;2023-03-20T10:12:47;99411.59;;;16.43;54.87
70488;BME280;57976;48.174;16.370;2023-03-20T10:15:02;99406.12;;;16.43;54.69
70488;BME280;57976;48.174;16.370;2023-03-20T10:17:23;99412.55;;;16.49;54.58
70488;BME280;57976;48.174;16.370;2023-03-20T10:19:35;99412.66;;;16.51;54.22
70488;BME280;57976;48.174;16.370;2023-03-20T10:21:44;99404.98;;;16.48;54.40
70488;BME280;57976;48.174;16.370;2023-03-20T10:23:52;99400.98;;;16.44;53.78
70488;BME280;57976;48.174;16.370;2023-03-20T10:26:04;99400.71;;;16.42;53.22
70488;BME280;57976;48.174;16.370;2023-03-20T10:28:13;99400.34;;;16.43;53.20
70488;BME280;57976;48.174;16.370;2023-03-20T10:30:27;99398.05;;;16.47;53.45
70488;BME280;57976;48.174;16.370;2023-03-20T10:32:37;99393.69;;;16.52;53.64
70488;BME280;57976;48.174;16.370;2023-03-20T10:35:08;99391.55;;;16.57;53.18
70488;BME280;57976;48.174;16.370;2023-03-20T10:37:25;99396.16;;;16.65;52.65
70488;BME280;57976;48.174;16.370;2023-03-20T10:39:50;99394.00;;;16.67;51.79
70488;BME280;57976;48.174;16.370;2023-03-20T10:42:00;99398.33;;;16.68;50.99
70488;BME280;57976;48.174;16.370;2023-03-20T10:44:13;99387.61;;;16.68;51.23
70488;BME280;57976;48.174;16.370;2023-03-20T10:46:23;99383.12;;;16.71;51.46
70488;BME280;57976;48.174;16.370;2023-03-20T10:48:33;99381.02;;;16.76;51.13
70488;BME280;57976;48.174;16.370;2023-03-20T10:50:44;99385.36;;;16.82;50.59
70488;BME280;57976;48.174;16.370;2023-03-20T10:52:51;99379.66;;;16.85;50.53
70488;BME280;57976;48.174;16.370;2023-03-20T10:54:59;99375.44;;;16.89;50.72
70488;BME280;57976;48.174;16.370;2023-03-20T10:57:06;99386.38;;;16.95;50.16
70488;BME280;57976;48.174;16.370;2023-03-20T10:59:21;99377.63;;;16.99;50.05
70488;BME280;57976;48.174;16.370;2023-03-20T11:01:27;99378.33;;;17.00;50.00
70488;BME280;57976;48.174;16.370;2023-03-20T11:03:32;99371.35;;;17.00;50.30
70488;BME280;57976;48.174;16.370;2023-03-20T11:05:38;99366.48;;;17.05;50.78
70488;BME280;57976;48.174;16.370;2023-03-20T11:07:43;99363.24;;;17.11;50.68
70488;BME280;57976;48.174;16.370;2023-03-20T11:10:07;99364.64;;;17.13;50.45
70488;BME280;57976;48.174;16.370;2023-03-20T11:12:18;99354.77;;;17.15;50.97
70488;BME280;57976;48.174;16.370;2023-03-20T11:14:24;99359.34;;;17.24;51.05
70488;BME280;57976;48.174;16.370;2023-03-20T11:16:32;99358.28;;;17.28;50.41
70488;BME280;57976;48.174;16.370;2023-03-20T11:18:38;99358.66;;;17.31;50.26
70488;BME280;57976;48.174;16.370;2023-03-20T11:20:48;99357.33;;;17.35;49.90
70488;BME280;57976;48.174;16.370;2023-03-20T11:23:00;99349.90;;;17.39;50.13
70488;BME280;57976;48.174;16.370;2023-03-20T11:25:24;99350.45;;;17.43;50.14